sensor_id;sensor_type;location;lat;lon;timestamp;pressure;altitude;pressure_sealevel;temperature;humidity
67052;BME280;53957;47.222;18.670;2023-01-27T00:01:22;100293.03;;;0.05;100.00
67052;BME280;53957;47.222;18.670;2023-01-27T00:04:25;100297.69;;;0.03;100.00
67052;BME280;53957;47.222;18.670;2023-01-27T00:07:28;100289.62;;;0.04;100.00
67052;BME280;53957;47.222;18.670;2023-01-27T00:10:31;100292.62;;;0.01;100.00
67052;BME280;53957;47.222;18.670;2023-01-27T00:13:34;100287.38;;;0.08;100.00
67052;BME280;53957;47.222;18.670;2023-01-27T00:16:37;100284.75;;;0.08;100.00
67052;BME280;53957;47.222;18.670;2023-01-27T00:19:39;100282.28;;;0.13;100.00
67052;BME280;53957;47.222;18.670;2023-01-27T00:22:46;100271.37;;;0.16;100.00
67052;BME280;53957;47.222;18.670;2023-01-27T00:26:10;100278.81;;;0.19;100.00
67052;BME280;53957;47.222;18.670;2023-01-27T00:29:14;100270.81;;;0.07;100.00
67052;BME280;53957;47.222;18.670;2023-01-27T00:32:17;100272.25;;;0.03;100.00
67052;BME280;53957;47.222;18.670;2023-01-27T00:35:38;100270.44;;;0.04;100.00
67052;BME280;53957;47.222;18.670;2023-01-27T00:38:41;100268.03;;;0.02;100.00
67052;BME280;53957;47.222;18.670;2023-01-27T00:41:44;100263.00;;;0.01;100.00
67052;BME280;53957;47.222;18.670;2023-01-27T00:44:47;100271.63;;;0.08;100.00
67052;BME280;53957;47.222;18.670;2023-01-27T00:48:09;100284.97;;;0.06;100.00
67052;BME280;53957;47.222;18.670;2023-01-27T00:51:12;100275.59;;;0.17;100.00
67052;BME280;53957;47.222;18.670;2023-01-27T00:54:15;100281.53;;;0.06;100.00
67052;BME280;53957;47.222;18.670;2023-01-27T00:57:20;100277.72;;;0.02;100.00
67052;BME280;53957;47.222;18.670;2023-01-27T01:00:23;100271.25;;;0.04;100.00
67052;BME280;53957;47.222;18.670;2023-01-27T01:03:30;100278.97;;;-0.08;100.00
67052;BME280;53957;47.222;18.670;2023-01-27T01:06:33;100280.81;;;-0.15;100.00
67052;BME280;53957;47.222;18.670;2023-01-27T01:09:37;100273.78;;;-0.14;100.00
67052;BME280;53957;47.222;18.670;2023-01-27T01:12:40;100279.25;;;-0.23;100.00
67052;BME280;53957;47.222;18.670;2023-01-27T01:15:43;100269.38;;;-0.21;100.00
67052;BME280;53957;47.222;18.670;2023-01-27T01:18:47;100267.72;;;-0.15;100.00
67052;BME280;53957;47.222;18.670;2023-01-27T01:21:50;100268.75;;;-0.16;100.00
67052;BME280;53957;47.222;18.670;2023-01-27T01:24:53;100257.37;;;-0.42;100.00
67052;BME280;53957;47.222;18.670;2023-01-27T01:27:55;100253.72;;;-0.34;100.00
67052;BME280;53957;47.222;18.670;2023-01-27T01:31:06;100262.62;;;-0.42;100.00
67052;BME280;53957;47.222;18.670;2023-01-27T01:34:09;100262.19;;;-0.39;100.00
67052;BME280;53957;47.222;18.670;2023-01-27T01:37:12;100257.97;;;-0.40;100.00
67052;BME280;53957;47.222;18.670;2023-01-27T01:40:16;100261.41;;;-0.46;100.00
67052;BME280;53957;47.222;18.670;2023-01-27T01:43:20;100261.47;;;-0.53;100.00
67052;BME280;53957;47.222;18.670;2023-01-27T01:46:24;100276.56;;;-0.55;100.00
67052;BME280;53957;47.222;18.670;2023-01-27T01:49:36;100271.59;;;-0.63;100.00
67052;BME280;53957;47.222;18.670;2023-01-27T01:52:40;100262.72;;;-0.69;100.00
67052;BME280;53957;47.222;18.670;2023-01-27T01:55:45;100260.28;;;-0.63;100.00
67052;BME280;53957;47.222;18.670;2023-01-27T01:58:52;100258.88;;;-0.66;100.00
67052;BME280;53957;47.222;18.670;2023-01-27T02:02:01;100247.84;;;-0.75;100.00
67052;BME280;53957;47.222;18.670;2023-01-27T02:05:16;100241.78;;;-0.75;100.00
67052;BME280;53957;47.222;18.670;2023-01-27T02:08:26;100243.78;;;-0.71;100.00
67052;BME280;53957;47.222;18.670;2023-01-27T02:11:31;100242.94;;;-0.65;100.00
67052;BME280;53957;47.222;18.670;2023-01-27T02:14:35;100239.94;;;-0.68;100.00
67052;BME280;53957;47.222;18.670;2023-01-27T02:17:37;100246.97;;;-0.62;100.00
67052;BME280;53957;47.222;18.670;2023-01-27T02:20:44;100242.94;;;-0.65;100.00
67052;BME280;53957;47.222;18.670;2023-01-27T02:23:54;100232.47;;;-0.58;100.00
67052;BME280;53957;47.222;18.670;2023-01-27T02:26:58;100225.19;;;-0.56;100.00
67052;BME280;53957;47.222;18.670;2023-01-27T02:30:03;100227.63;;;-0.54;100.00
67052;BME280;53957;47.222;18.670;2023-01-27T02:33:14;100230.22;;;-0.54;100.00
67052;BME280;53957;47.222;18.670;2023-01-27T02:36:17;100220.37;;;-0.59;100.00
67052;BME280;53957;47.222;18.670;2023-01-27T02:39:24;100218.53;;;-0.58;100.00
67052;BME280;53957;47.222;18.670;2023-01-27T02:42:28;100222.78;;;-0.57;100.00
67052;BME280;53957;47.222;18.670;2023-01-27T02:45:31;100213.94;;;-0.63;100.00
67052;BME280;53957;47.222;18.670;2023-01-27T02:48:34;100217.97;;;-0.60;100.00
67052;BME280;53957;47.222;18.670;2023-01-27T02:51:37;100209.66;;;-0.57;100.00
67052;BME280;53957;47.222;18.670;2023-01-27T02:54:41;100201.78;;;-0.51;100.00
67052;BME280;53957;47.222;18.670;2023-01-27T02:57:43;100200.56;;;-0.48;100.00
67052;BME280;53957;47.222;18.670;2023-01-27T03:00:47;100201.81;;;-0.57;100.00
67052;BME280;53957;47.222;18.670;2023-01-27T03:03:50;100195.41;;;-0.61;100.00
67052;BME280;53957;47.222;18.670;2023-01-27T03:06:53;100197.00;;;-0.60;100.00
67052;BME280;53957;47.222;18.670;2023-01-27T03:09:56;100187.75;;;-0.70;100.00
67052;BME280;53957;47.222;18.670;2023-01-27T03:12:59;100193.00;;;-0.70;100.00
67052;BME280;53957;47.222;18.670;2023-01-27T03:16:04;100186.59;;;-0.81;100.00
67052;BME280;53957;47.222;18.670;2023-01-27T03:19:26;100186.03;;;-0.83;100.00
67052;BME280;53957;47.222;18.670;2023-01-27T03:22:29;100185.41;;;-0.85;100.00
67052;BME280;53957;47.222;18.670;2023-01-27T03:25:33;100175.16;;;-0.86;100.00
67052;BME280;53957;47.222;18.670;2023-01-27T03:28:37;100172.16;;;-0.90;100.00
67052;BME280;53957;47.222;18.670;2023-01-27T03:31:40;100170.53;;;-0.91;100.00
67052;BME280;53957;47.222;18.670;2023-01-27T03:34:44;100164.06;;;-0.88;100.00
67052;BME280;53957;47.222;18.670;2023-01-27T03:37:48;100166.91;;;-0.90;100.00
67052;BME280;53957;47.222;18.670;2023-01-27T03:41:10;100172.53;;;-0.93;100.00
67052;BME280;53957;47.222;18.670;2023-01-27T03:44:31;100174.97;;;-0.98;100.00
67052;BME280;53957;47.222;18.670;2023-01-27T03:47:53;100169.75;;;-0.98;100.00
67052;BME280;53957;47.222;18.670;2023-01-27T03:50:57;100171.38;;;-1.04;100.00
67052;BME280;53957;47.222;18.670;2023-01-27T03:54:00;100161.09;;;-0.99;100.00
67052;BME280;53957;47.222;18.670;2023-01-27T03:57:02;100154.47;;;-1.01;100.00
67052;BME280;53957;47.222;18.670;2023-01-27T04:00:09;100149.81;;;-0.99;100.00
67052;BME280;53957;47.222;18.670;2023-01-27T04:03:14;100147.44;;;-1.14;100.00
67052;BME280;53957;47.222;18.670;2023-01-27T04:06:38;100138.81;;;-1.15;100.00
67052;BME280;53957;47.222;18.670;2023-01-27T04:09:53;100131.78;;;-1.21;100.00
67052;BME280;53957;47.222;18.670;2023-01-27T04:12:57;100132.34;;;-1.19;100.00
67052;BME280;53957;47.222;18.670;2023-01-27T04:15:59;100140.81;;;-1.17;100.00
67052;BME280;53957;47.222;18.670;2023-01-27T04:19:05;100137.16;;;-1.09;100.00
67052;BME280;53957;47.222;18.670;2023-01-27T04:22:12;100139.19;;;-1.11;100.00
67052;BME280;53957;47.222;18.670;2023-01-27T04:25:16;100128.13;;;-1.13;100.00
67052;BME280;53957;47.222;18.670;2023-01-27T04:28:19;100126.91;;;-1.10;100.00
67052;BME280;53957;47.222;18.670;2023-01-27T04:31:42;100121.22;;;-1.01;100.00
67052;BME280;53957;47.222;18.670;2023-01-27T04:34:45;100132.31;;;-1.05;100.00
67052;BME280;53957;47.222;18.670;2023-01-27T04:37:48;100127.84;;;-0.98;100.00
67052;BME280;53957;47.222;18.670;2023-01-27T04:40:53;100127.47;;;-1.02;100.00
67052;BME280;53957;47.222;18.670;2023-01-27T04:43:56;100130.31;;;-1.10;100.00
67052;BME280;53957;47.222;18.670;2023-01-27T04:46:58;100130.75;;;-1.13;100.00
67052;BME280;53957;47.222;18.670;2023-01-27T04:50:02;100138.16;;;-1.10;100.00
67052;BME280;53957;47.222;18.670;2023-01-27T04:53:05;100131.94;;;-1.09;100.00
67052;BME280;53957;47.222;18.670;2023-01-27T04:56:27;100137.97;;;-1.08;100.00
67052;BME280;53957;47.222;18.670;2023-01-27T04:59:30;100147.84;;;-1.10;100.00
67052;BME280;53957;47.222;18.670;2023-01-27T05:02:33;100146.63;;;-1.08;100.00
67052;BME280;53957;47.222;18.670;2023-01-27T05:05:37;100146.84;;;-1.09;100.00
67052;BME280;53957;47.222;18.670;2023-01-27T05:08:40;100148.06;;;-1.12;100.00
67052;BME280;53957;47.222;18.670;2023-01-27T05:11:43;100150.88;;;-1.20;100.00
67052;BME280;53957;47.222;18.670;2023-01-27T05:14:46;100153.09;;;-0.72;100.00
67052;BME280;53957;47.222;18.670;2023-01-27T05:17:49;100154.06;;;-1.05;100.00
67052;BME280;53957;47.222;18.670;2023-01-27T05:20:52;100144.03;;;-1.21;100.00
67052;BME280;53957;47.222;18.670;2023-01-27T05:23:55;100156.56;;;-1.23;100.00
67052;BME280;53957;47.222;18.670;2023-01-27T05:26:58;100151.28;;;-1.17;100.00
67052;BME280;53957;47.222;18.670;2023-01-27T05:30:02;100146.28;;;-1.18;100.00
67052;BME280;53957;47.222;18.670;2023-01-27T05:33:05;100148.84;;;-1.11;100.00
67052;BME280;53957;47.222;18.670;2023-01-27T05:36:18;100154.25;;;-1.06;100.00
67052;BME280;53957;47.222;18.670;2023-01-27T05:39:22;100149.66;;;-1.11;100.00
67052;BME280;53957;47.222;18.670;2023-01-27T05:42:24;100152.91;;;-1.16;100.00
67052;BME280;53957;47.222;18.670;2023-01-27T05:45:27;100152.87;;;-1.09;100.00
67052;BME280;53957;47.222;18.670;2023-01-27T05:48:30;100158.72;;;-1.07;100.00
67052;BME280;53957;47.222;18.670;2023-01-27T05:51:36;100161.53;;;-1.15;100.00
67052;BME280;53957;47.222;18.670;2023-01-27T05:54:39;100155.91;;;-1.12;100.00
67052;BME280;53957;47.222;18.670;2023-01-27T05:57:42;100161.78;;;-1.23;100.00
67052;BME280;53957;47.222;18.670;2023-01-27T06:00:46;100158.16;;;-1.29;100.00
67052;BME280;53957;47.222;18.670;2023-01-27T06:03:49;100162.63;;;-1.30;100.00
67052;BME280;53957;47.222;18.670;2023-01-27T06:06:51;100162.63;;;-1.30;100.00
67052;BME280;53957;47.222;18.670;2023-01-27T06:09:54;100165.44;;;-1.38;100.00
67052;BME280;53957;47.222;18.670;2023-01-27T06:12:58;100167.22;;;-1.38;100.00
67052;BME280;53957;47.222;18.670;2023-01-27T06:16:04;100161.22;;;-1.39;100.00
67052;BME280;53957;47.222;18.670;2023-01-27T06:19:07;100168.66;;;-1.36;100.00
67052;BME280;53957;47.222;18.670;2023-01-27T06:22:10;100171.44;;;-1.17;100.00
67052;BME280;53957;47.222;18.670;2023-01-27T06:25:13;100165.41;;;-1.24;100.00
67052;BME280;53957;47.222;18.670;2023-01-27T06:28:16;100157.56;;;-1.24;100.00
67052;BME280;53957;47.222;18.670;2023-01-27T06:31:30;100156.59;;;-1.37;100.00
67052;BME280;53957;47.222;18.670;2023-01-27T06:34:33;100155.75;;;-1.31;100.00
67052;BME280;53957;47.222;18.670;2023-01-27T06:37:36;100156.91;;;-1.13;100.00
67052;BME280;53957;47.222;18.670;2023-01-27T06:40:39;100162.16;;;-1.13;100.00
67052;BME280;53957;47.222;18.670;2023-01-27T06:43:42;100160.53;;;-1.07;100.00
67052;BME280;53957;47.222;18.670;2023-01-27T06:46:45;100153.66;;;-1.02;100.00
67052;BME280;53957;47.222;18.670;2023-01-27T06:49:48;100149.25;;;-1.08;100.00
67052;BME280;53957;47.222;18.670;2023-01-27T06:52:51;100151.06;;;-1.08;100.00
67052;BME280;53957;47.222;18.670;2023-01-27T06:55:56;100163.28;;;-0.95;100.00
67052;BME280;53957;47.222;18.670;2023-01-27T06:58:59;100149.28;;;-0.69;100.00
67052;BME280;53957;47.222;18.670;2023-01-27T07:02:02;100166.66;;;-0.82;100.00
67052;BME280;53957;47.222;18.670;2023-01-27T07:05:05;100169.09;;;-0.80;100.00
67052;BME280;53957;47.222;18.670;2023-01-27T07:08:09;100166.84;;;-0.76;100.00
67052;BME280;53957;47.222;18.670;2023-01-27T07:11:13;100160.34;;;-0.60;100.00
67052;BME280;53957;47.222;18.670;2023-01-27T07:14:15;100165.38;;;-0.66;100.00
67052;BME280;53957;47.222;18.670;2023-01-27T07:17:19;100163.28;;;-0.50;100.00
67052;BME280;53957;47.222;18.670;2023-01-27T07:20:22;100168.34;;;-0.55;100.00
67052;BME280;53957;47.222;18.670;2023-01-27T07:23:25;100169.88;;;-0.41;100.00
67052;BME280;53957;47.222;18.670;2023-01-27T07:26:28;100173.72;;;-0.43;100.00
67052;BME280;53957;47.222;18.670;2023-01-27T07:29:31;100174.25;;;-0.28;100.00
67052;BME280;53957;47.222;18.670;2023-01-27T07:32:34;100169.59;;;-0.26;100.00
67052;BME280;53957;47.222;18.670;2023-01-27T19:37:15;100224.44;;;0.08;100.00
67052;BME280;53957;47.222;18.670;2023-01-27T19:40:24;100224.84;;;0.05;100.00
67052;BME280;53957;47.222;18.670;2023-01-27T19:43:27;100228.47;;;0.04;100.00
67052;BME280;53957;47.222;18.670;2023-01-27T19:46:31;100234.31;;;0.06;100.00
67052;BME280;53957;47.222;18.670;2023-01-27T19:49:35;100242.34;;;0.11;100.00
67052;BME280;53957;47.222;18.670;2023-01-27T19:52:38;100241.34;;;0.12;100.00
67052;BME280;53957;47.222;18.670;2023-01-27T19:55:42;100239.31;;;0.14;100.00
67052;BME280;53957;47.222;18.670;2023-01-27T19:58:49;100238.13;;;0.10;100.00
67052;BME280;53957;47.222;18.670;2023-01-27T20:01:53;100248.28;;;-0.01;100.00
67052;BME280;53957;47.222;18.670;2023-01-27T20:04:58;100253.97;;;-0.04;100.00
67052;BME280;53957;47.222;18.670;2023-01-27T20:08:01;100255.09;;;0.07;100.00
67052;BME280;53957;47.222;18.670;2023-01-27T20:11:10;100252.69;;;0.06;100.00
67052;BME280;53957;47.222;18.670;2023-01-27T20:14:18;100255.44;;;0.18;100.00
67052;BME280;53957;47.222;18.670;2023-01-27T20:17:22;100260.47;;;0.19;100.00
67052;BME280;53957;47.222;18.670;2023-01-27T20:20:26;100264.94;;;0.12;100.00
67052;BME280;53957;47.222;18.670;2023-01-27T20:23:29;100264.78;;;0.07;100.00
67052;BME280;53957;47.222;18.670;2023-01-27T20:26:32;100265.62;;;0.01;100.00
67052;BME280;53957;47.222;18.670;2023-01-27T20:29:36;100272.88;;;-0.02;100.00
67052;BME280;53957;47.222;18.670;2023-01-27T20:32:41;100273.66;;;0.06;100.00
67052;BME280;53957;47.222;18.670;2023-01-27T20:35:44;100262.41;;;-0.02;100.00
67052;BME280;53957;47.222;18.670;2023-01-27T20:38:48;100265.62;;;0.01;100.00
67052;BME280;53957;47.222;18.670;2023-01-27T20:41:52;100269.03;;;0.01;100.00
67052;BME280;53957;47.222;18.670;2023-01-27T20:44:56;100272.88;;;0.05;100.00
67052;BME280;53957;47.222;18.670;2023-01-27T20:47:59;100275.44;;;0.12;100.00
67052;BME280;53957;47.222;18.670;2023-01-27T20:51:06;100274.09;;;0.03;100.00
67052;BME280;53957;47.222;18.670;2023-01-27T20:54:10;100284.16;;;0.06;100.00
67052;BME280;53957;47.222;18.670;2023-01-27T20:57:16;100273.63;;;0.12;100.00
67052;BME280;53957;47.222;18.670;2023-01-27T21:00:21;100275.66;;;0.10;100.00
67052;BME280;53957;47.222;18.670;2023-01-27T21:03:25;100277.59;;;0.22;100.00
67052;BME280;53957;47.222;18.670;2023-01-27T21:06:29;100284.91;;;0.13;100.00
67052;BME280;53957;47.222;18.670;2023-01-27T21:09:32;100290.00;;;0.08;100.00
67052;BME280;53957;47.222;18.670;2023-01-27T21:12:35;100284.31;;;0.11;100.00
67052;BME280;53957;47.222;18.670;2023-01-27T21:15:38;100287.25;;;0.28;100.00
67052;BME280;53957;47.222;18.670;2023-01-27T21:18:41;100280.28;;;0.15;100.00
67052;BME280;53957;47.222;18.670;2023-01-27T21:21:45;100284.16;;;0.06;100.00
67052;BME280;53957;47.222;18.670;2023-01-27T21:24:48;100282.50;;;0.11;100.00
67052;BME280;53957;47.222;18.670;2023-01-27T21:27:51;100284.59;;;0.03;100.00
67052;BME280;53957;47.222;18.670;2023-01-27T21:30:54;100289.06;;;-0.05;100.00
67052;BME280;53957;47.222;18.670;2023-01-27T21:33:59;100282.13;;;0.08;100.00
67052;BME280;53957;47.222;18.670;2023-01-27T21:37:02;100285.75;;;0.07;100.00
67052;BME280;53957;47.222;18.670;2023-01-27T21:40:05;100284.37;;;0.04;100.00
67052;BME280;53957;47.222;18.670;2023-01-27T21:43:08;100287.53;;;0.13;100.00
67052;BME280;53957;47.222;18.670;2023-01-27T21:46:29;100286.56;;;0.07;100.00
67052;BME280;53957;47.222;18.670;2023-01-27T21:49:34;100276.88;;;0.08;100.00
67052;BME280;53957;47.222;18.670;2023-01-27T21:52:57;100275.50;;;-0.02;100.00
67052;BME280;53957;47.222;18.670;2023-01-27T21:56:05;100283.12;;;0.07;100.00
67052;BME280;53957;47.222;18.670;2023-01-27T21:59:08;100281.53;;;0.06;100.00
67052;BME280;53957;47.222;18.670;2023-01-27T22:02:15;100285.16;;;0.05;100.00
67052;BME280;53957;47.222;18.670;2023-01-27T22:05:18;100286.09;;;0.17;100.00
67052;BME280;53957;47.222;18.670;2023-01-27T22:08:21;100281.84;;;0.16;100.00
67052;BME280;53957;47.222;18.670;2023-01-27T22:11:24;100291.25;;;-0.02;100.00
67052;BME280;53957;47.222;18.670;2023-01-27T22:14:27;100287.78;;;0.05;100.00
67052;BME280;53957;47.222;18.670;2023-01-27T22:17:30;100285.38;;;0.03;100.00
67052;BME280;53957;47.222;18.670;2023-01-27T22:20:33;100283.38;;;-0.02;100.00
67052;BME280;53957;47.222;18.670;2023-01-27T22:23:36;100291.84;;;0.01;100.00
67052;BME280;53957;47.222;18.670;2023-01-27T22:26:39;100286.00;;;-0.02;100.00
67052;BME280;53957;47.222;18.670;2023-01-27T22:29:42;100287.22;;;0.03;100.00
67052;BME280;53957;47.222;18.670;2023-01-27T22:32:46;100286.94;;;0.11;100.00
67052;BME280;53957;47.222;18.670;2023-01-27T22:36:01;100291.06;;;0.00;100.00
67052;BME280;53957;47.222;18.670;2023-01-27T22:39:04;100295.31;;;-0.06;100.00
67052;BME280;53957;47.222;18.670;2023-01-27T22:42:08;100288.63;;;-0.02;100.00
67052;BME280;53957;47.222;18.670;2023-01-27T22:45:10;100292.69;;;-0.06;100.00
67052;BME280;53957;47.222;18.670;2023-01-27T22:48:15;100286.84;;;-0.08;100.00
67052;BME280;53957;47.222;18.670;2023-01-27T22:51:18;100290.09;;;-0.12;100.00
67052;BME280;53957;47.222;18.670;2023-01-27T22:54:21;100282.06;;;-0.18;100.00
67052;BME280;53957;47.222;18.670;2023-01-27T22:57:24;100281.22;;;-0.11;100.00
67052;BME280;53957;47.222;18.670;2023-01-27T23:00:32;100281.81;;;-0.09;100.00
67052;BME280;53957;47.222;18.670;2023-01-27T23:03:35;100282.16;;;0.01;100.00
67052;BME280;53957;47.222;18.670;2023-01-27T23:06:38;100283.00;;;-0.05;100.00
67052;BME280;53957;47.222;18.670;2023-01-27T23:09:41;100269.25;;;-0.01;100.00
67052;BME280;53957;47.222;18.670;2023-01-27T23:12:44;100278.50;;;0.09;100.00
67052;BME280;53957;47.222;18.670;2023-01-27T23:15:47;100268.25;;;0.01;100.00
67052;BME280;53957;47.222;18.670;2023-01-27T23:18:50;100283.81;;;-0.05;100.00
67052;BME280;53957;47.222;18.670;2023-01-27T23:21:53;100272.34;;;-0.10;100.00
67052;BME280;53957;47.222;18.670;2023-01-27T23:24:56;100275.34;;;-0.07;100.00
67052;BME280;53957;47.222;18.670;2023-01-27T23:27:59;100275.50;;;-0.02;100.00
67052;BME280;53957;47.222;18.670;2023-01-27T23:31:02;100276.88;;;0.08;100.00
67052;BME280;53957;47.222;18.670;2023-01-27T23:34:06;100273.31;;;-0.05;100.00
67052;BME280;53957;47.222;18.670;2023-01-27T23:37:09;100281.97;;;-0.04;100.00
67052;BME280;53957;47.222;18.670;2023-01-27T23:40:12;100284.59;;;0.03;100.00
67052;BME280;53957;47.222;18.670;2023-01-27T23:43:15;100276.44;;;0.11;100.00
67052;BME280;53957;47.222;18.670;2023-01-27T23:46:18;100272.81;;;0.12;100.00
67052;BME280;53957;47.222;18.670;2023-01-27T23:49:21;100283.59;;;-0.03;100.00
67052;BME280;53957;47.222;18.670;2023-01-27T23:52:24;100288.72;;;0.17;100.00
67052;BME280;53957;47.222;18.670;2023-01-27T23:55:27;100287.09;;;0.16;100.00
67052;BME280;53957;47.222;18.670;2023-01-27T23:58:30;100283.06;;;0.20;100.00
